sensor_id;sensor_type;location;lat;lon;timestamp;pressure;altitude;pressure_sealevel;temperature;humidity
18569;BME280;14780;48.316;-1.050;2022-09-30T00:01:09;98412.09;;;22.32;45.17
18569;BME280;14780;48.316;-1.050;2022-09-30T00:03:55;98420.28;;;22.32;45.07
18569;BME280;14780;48.316;-1.050;2022-09-30T00:06:40;98420.56;;;22.30;45.09
18569;BME280;14780;48.316;-1.050;2022-09-30T00:09:25;98423.31;;;22.30;45.13
18569;BME280;14780;48.316;-1.050;2022-09-30T00:12:10;98421.38;;;22.31;45.08
18569;BME280;14780;48.316;-1.050;2022-09-30T00:14:55;98418.66;;;22.31;45.08
18569;BME280;14780;48.316;-1.050;2022-09-30T00:17:40;98422.47;;;22.30;45.18
18569;BME280;14780;48.316;-1.050;2022-09-30T00:20:24;98420.03;;;22.28;45.10
18569;BME280;14780;48.316;-1.050;2022-09-30T00:23:09;98413.78;;;22.28;45.08
18569;BME280;14780;48.316;-1.050;2022-09-30T00:26:02;98415.13;;;22.30;45.14
18569;BME280;14780;48.316;-1.050;2022-09-30T00:28:55;98423.84;;;22.32;45.04
18569;BME280;14780;48.316;-1.050;2022-09-30T00:31:40;98423.31;;;22.25;45.14
18569;BME280;14780;48.316;-1.050;2022-09-30T00:34:24;98424.09;;;22.26;45.10
18569;BME280;14780;48.316;-1.050;2022-09-30T00:37:09;98422.47;;;22.25;45.09
18569;BME280;14780;48.316;-1.050;2022-09-30T00:39:58;98416.22;;;22.24;45.20
18569;BME280;14780;48.316;-1.050;2022-09-30T00:42:43;98418.13;;;22.24;45.23
18569;BME280;14780;48.316;-1.050;2022-09-30T00:45:29;98411.06;;;22.23;45.20
18569;BME280;14780;48.316;-1.050;2022-09-30T00:48:28;98417.59;;;22.27;45.15
18569;BME280;14780;48.316;-1.050;2022-09-30T00:51:14;98434.75;;;22.22;45.14
18569;BME280;14780;48.316;-1.050;2022-09-30T00:54:09;98434.47;;;22.24;45.08
18569;BME280;14780;48.316;-1.050;2022-09-30T00:57:01;98439.94;;;22.24;45.17
18569;BME280;14780;48.316;-1.050;2022-09-30T00:59:48;98432.84;;;22.23;45.18
18569;BME280;14780;48.316;-1.050;2022-09-30T01:02:35;98438.88;;;22.20;45.16
18569;BME280;14780;48.316;-1.050;2022-09-30T01:05:21;98436.41;;;22.18;45.14
18569;BME280;14780;48.316;-1.050;2022-09-30T01:08:08;98445.69;;;22.17;45.23
18569;BME280;14780;48.316;-1.050;2022-09-30T01:10:54;98451.94;;;22.18;45.23
18569;BME280;14780;48.316;-1.050;2022-09-30T01:13:39;98444.06;;;22.16;45.21
18569;BME280;14780;48.316;-1.050;2022-09-30T01:35:31;98449.19;;;22.23;45.06
18569;BME280;14780;48.316;-1.050;2022-09-30T01:50:25;98483.56;;;22.14;45.25
18569;BME280;14780;48.316;-1.050;2022-09-30T01:56:49;98491.69;;;22.19;45.10
18569;BME280;14780;48.316;-1.050;2022-09-30T01:59:40;98487.38;;;22.08;45.28
18569;BME280;14780;48.316;-1.050;2022-09-30T02:02:29;98493.66;;;22.08;45.22
18569;BME280;14780;48.316;-1.050;2022-09-30T02:05:40;98494.44;;;22.09;45.25
18569;BME280;14780;48.316;-1.050;2022-09-30T02:08:58;98497.97;;;22.14;45.17
18569;BME280;14780;48.316;-1.050;2022-09-30T02:11:45;98483.56;;;22.04;45.26
18569;BME280;14780;48.316;-1.050;2022-09-30T02:14:38;98486.28;;;22.04;45.26
18569;BME280;14780;48.316;-1.050;2022-09-30T02:17:34;98490.63;;;22.10;45.32
18569;BME280;14780;48.316;-1.050;2022-09-30T02:20:26;98490.66;;;22.05;45.35
18569;BME280;14780;48.316;-1.050;2022-09-30T02:23:16;98483.56;;;22.04;45.25
18569;BME280;14780;48.316;-1.050;2022-09-30T02:26:08;98484.66;;;22.03;45.33
18569;BME280;14780;48.316;-1.050;2022-09-30T02:29:02;98492.56;;;22.04;45.40
18569;BME280;14780;48.316;-1.050;2022-09-30T02:31:51;98503.72;;;22.03;45.27
18569;BME280;14780;48.316;-1.050;2022-09-30T02:34:41;98500.47;;;22.01;45.34
18569;BME280;14780;48.316;-1.050;2022-09-30T02:37:38;98500.72;;;22.04;45.37
18569;BME280;14780;48.316;-1.050;2022-09-30T02:40:38;98498.28;;;22.08;45.17
18569;BME280;14780;48.316;-1.050;2022-09-30T02:43:27;98508.09;;;21.99;45.31
18569;BME280;14780;48.316;-1.050;2022-09-30T02:46:56;98512.44;;;22.10;45.20
18569;BME280;14780;48.316;-1.050;2022-09-30T02:50:00;98517.59;;;22.06;45.21
18569;BME280;14780;48.316;-1.050;2022-09-30T02:53:16;98516.50;;;22.07;45.26
18569;BME280;14780;48.316;-1.050;2022-09-30T02:56:27;98519.53;;;22.06;45.15
18569;BME280;14780;48.316;-1.050;2022-09-30T02:59:19;98519.53;;;21.96;45.26
18569;BME280;14780;48.316;-1.050;2022-09-30T03:02:04;98525.25;;;21.94;45.34
18569;BME280;14780;48.316;-1.050;2022-09-30T03:04:49;98522.53;;;21.94;45.44
18569;BME280;14780;48.316;-1.050;2022-09-30T03:07:36;98520.88;;;21.93;45.34
18569;BME280;14780;48.316;-1.050;2022-09-30T03:10:21;98518.97;;;21.94;45.39
18569;BME280;14780;48.316;-1.050;2022-09-30T03:19:17;98528.25;;;21.98;45.41
18569;BME280;14780;48.316;-1.050;2022-09-30T03:25:49;98525.81;;;22.01;45.24
18569;BME280;14780;48.316;-1.050;2022-09-30T03:28:39;98528.78;;;22.10;44.91
18569;BME280;14780;48.316;-1.050;2022-09-30T03:32:02;98521.16;;;21.97;45.23
18569;BME280;14780;48.316;-1.050;2022-09-30T03:35:00;98528.25;;;21.88;45.28
18569;BME280;14780;48.316;-1.050;2022-09-30T03:38:01;98526.31;;;21.93;45.41
18569;BME280;14780;48.316;-1.050;2022-09-30T03:46:59;98539.13;;;21.88;45.34
18569;BME280;14780;48.316;-1.050;2022-09-30T03:49:51;98529.88;;;21.89;45.39
18569;BME280;14780;48.316;-1.050;2022-09-30T03:52:38;98532.63;;;21.84;45.44
18569;BME280;14780;48.316;-1.050;2022-09-30T03:55:23;98533.41;;;21.84;45.41
18569;BME280;14780;48.316;-1.050;2022-09-30T03:58:09;98531.78;;;21.83;45.45
18569;BME280;14780;48.316;-1.050;2022-09-30T04:00:53;98526.34;;;21.83;45.67
18569;BME280;14780;48.316;-1.050;2022-09-30T04:03:40;98536.41;;;21.83;45.53
18569;BME280;14780;48.316;-1.050;2022-09-30T04:06:25;98538.06;;;21.84;45.48
18569;BME280;14780;48.316;-1.050;2022-09-30T04:09:10;98539.94;;;21.83;45.46
18569;BME280;14780;48.316;-1.050;2022-09-30T04:11:55;98541.06;;;21.82;45.48
18569;BME280;14780;48.316;-1.050;2022-09-30T04:14:39;98551.09;;;21.82;45.42
18569;BME280;14780;48.316;-1.050;2022-09-30T04:17:24;98551.41;;;21.80;45.54
18569;BME280;14780;48.316;-1.050;2022-09-30T04:20:09;98555.75;;;21.81;45.53
18569;BME280;14780;48.316;-1.050;2022-09-30T04:22:56;98563.94;;;21.81;45.55
18569;BME280;14780;48.316;-1.050;2022-09-30T04:25:42;98562.28;;;21.80;45.51
18569;BME280;14780;48.316;-1.050;2022-09-30T04:28:26;98569.09;;;21.78;45.51
18569;BME280;14780;48.316;-1.050;2022-09-30T04:31:13;98569.09;;;21.78;45.58
18569;BME280;14780;48.316;-1.050;2022-09-30T04:33:59;98578.91;;;21.79;45.52
18569;BME280;14780;48.316;-1.050;2022-09-30T04:36:43;98571.28;;;21.76;45.50
18569;BME280;14780;48.316;-1.050;2022-09-30T04:39:28;98562.28;;;21.75;45.61
18569;BME280;14780;48.316;-1.050;2022-09-30T04:42:13;98566.91;;;21.75;45.55
18569;BME280;14780;48.316;-1.050;2022-09-30T04:44:57;98572.91;;;21.72;45.56
18569;BME280;14780;48.316;-1.050;2022-09-30T04:47:43;98570.72;;;21.74;45.56
18569;BME280;14780;48.316;-1.050;2022-09-30T04:50:28;98570.72;;;21.74;45.54
18569;BME280;14780;48.316;-1.050;2022-09-30T04:53:14;98564.47;;;21.73;45.48
18569;BME280;14780;48.316;-1.050;2022-09-30T04:56:02;98569.63;;;21.75;45.59
18569;BME280;14780;48.316;-1.050;2022-09-30T04:58:46;98579.16;;;21.72;45.65
18569;BME280;14780;48.316;-1.050;2022-09-30T05:01:31;98571.25;;;21.71;45.48
18569;BME280;14780;48.316;-1.050;2022-09-30T05:04:16;98572.91;;;21.72;45.64
18569;BME280;14780;48.316;-1.050;2022-09-30T05:07:01;98563.09;;;21.71;45.56
18569;BME280;14780;48.316;-1.050;2022-09-30T05:09:47;98572.34;;;21.70;45.65
18569;BME280;14780;48.316;-1.050;2022-09-30T05:12:32;98568.00;;;21.69;45.55
18569;BME280;14780;48.316;-1.050;2022-09-30T05:15:17;98568.00;;;21.69;45.58
18569;BME280;14780;48.316;-1.050;2022-09-30T05:18:01;98573.44;;;21.69;45.53
18569;BME280;14780;48.316;-1.050;2022-09-30T05:20:49;98567.16;;;21.68;45.61
18569;BME280;14780;48.316;-1.050;2022-09-30T05:23:34;98572.88;;;21.67;45.67
18569;BME280;14780;48.316;-1.050;2022-09-30T05:26:19;98573.13;;;21.65;45.51
18569;BME280;14780;48.316;-1.050;2022-09-30T05:29:04;98575.28;;;21.63;45.60
18569;BME280;14780;48.316;-1.050;2022-09-30T05:31:48;98578.31;;;21.62;45.59
18569;BME280;14780;48.316;-1.050;2022-09-30T05:34:33;98581.03;;;21.62;45.61
18569;BME280;14780;48.316;-1.050;2022-09-30T05:37:17;98583.75;;;21.62;45.59
18569;BME280;14780;48.316;-1.050;2022-09-30T05:40:02;98592.72;;;21.62;45.69
18569;BME280;14780;48.316;-1.050;2022-09-30T05:42:47;98603.34;;;21.64;45.69
18569;BME280;14780;48.316;-1.050;2022-09-30T05:45:32;98601.72;;;21.63;45.64
18569;BME280;14780;48.316;-1.050;2022-09-30T05:48:18;98603.59;;;21.62;45.63
18569;BME280;14780;48.316;-1.050;2022-09-30T05:51:02;98600.88;;;21.62;45.64
18569;BME280;14780;48.316;-1.050;2022-09-30T05:53:47;98603.34;;;21.64;45.56
18569;BME280;14780;48.316;-1.050;2022-09-30T05:56:32;98610.13;;;21.61;45.70
18569;BME280;14780;48.316;-1.050;2022-09-30T05:59:21;98611.78;;;21.62;45.57
18569;BME280;14780;48.316;-1.050;2022-09-30T06:02:07;98620.19;;;21.61;45.62
18569;BME280;14780;48.316;-1.050;2022-09-30T06:04:52;98612.31;;;21.59;45.70
18569;BME280;14780;48.316;-1.050;2022-09-30T06:07:37;98622.38;;;21.59;45.59
18569;BME280;14780;48.316;-1.050;2022-09-30T06:10:22;98624.31;;;21.58;45.80
18569;BME280;14780;48.316;-1.050;2022-09-30T06:13:08;98628.38;;;21.56;45.73
18569;BME280;14780;48.316;-1.050;2022-09-30T06:16:00;98638.19;;;21.62;45.57
18569;BME280;14780;48.316;-1.050;2022-09-30T06:18:45;98651.25;;;21.55;45.61
18569;BME280;14780;48.316;-1.050;2022-09-30T06:21:30;98647.16;;;21.52;45.74
18569;BME280;14780;48.316;-1.050;2022-09-30T06:24:15;98649.56;;;21.54;45.72
18569;BME280;14780;48.316;-1.050;2022-09-30T06:27:00;98647.41;;;21.51;45.65
18569;BME280;14780;48.316;-1.050;2022-09-30T06:29:44;98656.09;;;21.53;45.65
18569;BME280;14780;48.316;-1.050;2022-09-30T06:32:29;98650.66;;;21.53;45.80
18569;BME280;14780;48.316;-1.050;2022-09-30T06:35:14;98652.31;;;21.54;45.66
18569;BME280;14780;48.316;-1.050;2022-09-30T06:37:59;98656.09;;;21.53;45.71
18569;BME280;14780;48.316;-1.050;2022-09-30T06:40:44;98653.13;;;21.54;45.74
18569;BME280;14780;48.316;-1.050;2022-09-30T06:43:35;98658.13;;;21.72;45.25
18569;BME280;14780;48.316;-1.050;2022-09-30T06:46:21;98657.75;;;21.54;45.76
18569;BME280;14780;48.316;-1.050;2022-09-30T06:49:09;98655.31;;;21.52;45.71
18569;BME280;14780;48.316;-1.050;2022-09-30T06:51:53;98663.72;;;21.51;45.72
18569;BME280;14780;48.316;-1.050;2022-09-30T06:54:41;98655.31;;;21.52;45.72
18569;BME280;14780;48.316;-1.050;2022-09-30T06:57:26;98649.03;;;21.52;45.81
18569;BME280;14780;48.316;-1.050;2022-09-30T07:00:11;98648.50;;;21.50;45.75
18569;BME280;14780;48.316;-1.050;2022-09-30T07:02:57;98653.38;;;21.48;45.80
18569;BME280;14780;48.316;-1.050;2022-09-30T07:05:42;98643.59;;;21.47;45.84
18569;BME280;14780;48.316;-1.050;2022-09-30T07:08:29;98644.13;;;21.49;45.86
18569;BME280;14780;48.316;-1.050;2022-09-30T07:11:15;98648.47;;;21.45;45.82
18569;BME280;14780;48.316;-1.050;2022-09-30T07:14:00;98640.03;;;21.46;45.88
18569;BME280;14780;48.316;-1.050;2022-09-30T07:16:45;98636.50;;;21.46;45.81
18569;BME280;14780;48.316;-1.050;2022-09-30T07:19:30;98639.78;;;21.48;45.83
18569;BME280;14780;48.316;-1.050;2022-09-30T07:22:21;98647.94;;;21.48;45.88
18569;BME280;14780;48.316;-1.050;2022-09-30T07:25:13;98643.84;;;21.45;45.75
18569;BME280;14780;48.316;-1.050;2022-09-30T07:27:59;98644.66;;;21.46;45.88
18569;BME280;14780;48.316;-1.050;2022-09-30T07:30:44;98651.19;;;21.45;46.00
18569;BME280;14780;48.316;-1.050;2022-09-30T07:33:29;98653.91;;;21.45;45.90
18569;BME280;14780;48.316;-1.050;2022-09-30T07:36:16;98658.56;;;21.44;45.92
18569;BME280;14780;48.316;-1.050;2022-09-30T07:39:04;98667.50;;;21.45;45.90
18569;BME280;14780;48.316;-1.050;2022-09-30T07:41:50;98668.59;;;21.44;45.84
18569;BME280;14780;48.316;-1.050;2022-09-30T07:44:38;98670.25;;;21.45;45.93
18569;BME280;14780;48.316;-1.050;2022-09-30T07:47:25;98670.25;;;21.45;45.96
18569;BME280;14780;48.316;-1.050;2022-09-30T07:50:10;98672.41;;;21.43;45.96
18569;BME280;14780;48.316;-1.050;2022-09-30T07:52:59;98665.88;;;21.44;45.95
18569;BME280;14780;48.316;-1.050;2022-09-30T07:55:44;98666.97;;;21.43;45.88
18569;BME280;14780;48.316;-1.050;2022-09-30T07:58:29;98677.59;;;21.44;45.93
18569;BME280;14780;48.316;-1.050;2022-09-30T08:01:14;98674.06;;;21.44;45.94
18569;BME280;14780;48.316;-1.050;2022-09-30T08:04:03;98668.59;;;21.44;45.99
18569;BME280;14780;48.316;-1.050;2022-09-30T08:06:50;98675.13;;;21.43;45.91
18569;BME280;14780;48.316;-1.050;2022-09-30T08:09:35;98677.84;;;21.43;45.93
18569;BME280;14780;48.316;-1.050;2022-09-30T08:12:20;98680.84;;;21.41;45.98
18569;BME280;14780;48.316;-1.050;2022-09-30T08:15:05;98686.28;;;21.41;45.96
18569;BME280;14780;48.316;-1.050;2022-09-30T08:17:53;98696.38;;;21.41;45.96
18569;BME280;14780;48.316;-1.050;2022-09-30T08:20:37;98689.00;;;21.41;45.84
18569;BME280;14780;48.316;-1.050;2022-09-30T08:23:22;98689.28;;;21.40;45.94
18569;BME280;14780;48.316;-1.050;2022-09-30T08:26:09;98689.28;;;21.40;46.08
18569;BME280;14780;48.316;-1.050;2022-09-30T08:28:54;98689.28;;;21.40;46.00
18569;BME280;14780;48.316;-1.050;2022-09-30T08:31:40;98698.50;;;21.39;45.99
18569;BME280;14780;48.316;-1.050;2022-09-30T08:34:25;98698.00;;;21.42;46.00
18569;BME280;14780;48.316;-1.050;2022-09-30T08:37:09;98700.97;;;21.40;45.97
18569;BME280;14780;48.316;-1.050;2022-09-30T08:39:54;98699.09;;;21.41;46.04
18569;BME280;14780;48.316;-1.050;2022-09-30T08:52:19;98686.56;;;21.40;46.09
18569;BME280;14780;48.316;-1.050;2022-09-30T08:55:06;98696.88;;;21.38;46.00
18569;BME280;14780;48.316;-1.050;2022-09-30T08:57:54;98700.19;;;21.40;46.10
18569;BME280;14780;48.316;-1.050;2022-09-30T09:00:40;98700.19;;;21.40;46.05
18569;BME280;14780;48.316;-1.050;2022-09-30T09:03:28;98710.53;;;21.43;46.05
18569;BME280;14780;48.316;-1.050;2022-09-30T09:09:29;98729.06;;;21.51;46.04
18569;BME280;14780;48.316;-1.050;2022-09-30T09:18:28;98726.31;;;21.46;46.14
18569;BME280;14780;48.316;-1.050;2022-09-30T09:24:21;98736.38;;;21.50;46.11
18569;BME280;14780;48.316;-1.050;2022-09-30T09:27:19;98730.69;;;21.52;46.14
18569;BME280;14780;48.316;-1.050;2022-09-30T09:30:13;98733.66;;;21.50;46.17
18569;BME280;14780;48.316;-1.050;2022-09-30T09:33:19;98737.25;;;21.56;46.07
18569;BME280;14780;48.316;-1.050;2022-09-30T09:44:53;98744.84;;;21.54;46.31
18569;BME280;14780;48.316;-1.050;2022-09-30T09:47:40;98733.41;;;21.52;46.30
18569;BME280;14780;48.316;-1.050;2022-09-30T09:53:51;98725.53;;;21.55;46.15
18569;BME280;14780;48.316;-1.050;2022-09-30T09:56:36;98721.19;;;21.54;46.26
18569;BME280;14780;48.316;-1.050;2022-09-30T09:59:21;98720.09;;;21.55;46.31
18569;BME280;14780;48.316;-1.050;2022-09-30T10:02:22;98710.09;;;21.66;46.16
18569;BME280;14780;48.316;-1.050;2022-09-30T10:05:22;98699.22;;;21.66;46.08
18569;BME280;14780;48.316;-1.050;2022-09-30T10:08:18;98703.00;;;21.65;46.14
18569;BME280;14780;48.316;-1.050;2022-09-30T10:11:17;98708.97;;;21.62;46.18
18569;BME280;14780;48.316;-1.050;2022-09-30T10:14:04;98716.84;;;21.63;46.15
18569;BME280;14780;48.316;-1.050;2022-09-30T10:17:04;98714.97;;;21.64;46.24
18569;BME280;14780;48.316;-1.050;2022-09-30T10:19:51;98723.13;;;21.64;46.23
18569;BME280;14780;48.316;-1.050;2022-09-30T10:22:36;98727.50;;;21.65;46.29
18569;BME280;14780;48.316;-1.050;2022-09-30T10:25:23;98732.41;;;21.68;46.17
18569;BME280;14780;48.316;-1.050;2022-09-30T10:28:43;98728.41;;;21.80;46.03
18569;BME280;14780;48.316;-1.050;2022-09-30T10:31:37;98710.94;;;21.76;46.17
18569;BME280;14780;48.316;-1.050;2022-09-30T10:34:29;98727.00;;;21.73;46.23
18569;BME280;14780;48.316;-1.050;2022-09-30T10:37:20;98716.41;;;21.76;46.16
18569;BME280;14780;48.316;-1.050;2022-09-30T10:40:11;98716.66;;;21.75;46.24
18569;BME280;14780;48.316;-1.050;2022-09-30T10:42:59;98721.03;;;21.76;46.17
18569;BME280;14780;48.316;-1.050;2022-09-30T10:45:44;98721.03;;;21.76;46.29
18569;BME280;14780;48.316;-1.050;2022-09-30T10:48:34;98719.16;;;21.81;46.10
18569;BME280;14780;48.316;-1.050;2022-09-30T10:51:31;98719.69;;;21.83;46.20
18569;BME280;14780;48.316;-1.050;2022-09-30T10:54:50;98718.38;;;21.91;46.04
18569;BME280;14780;48.316;-1.050;2022-09-30T10:57:36;98716.13;;;21.83;46.17
18569;BME280;14780;48.316;-1.050;2022-09-30T11:00:23;98727.03;;;21.83;46.20
18569;BME280;14780;48.316;-1.050;2022-09-30T11:03:13;98721.06;;;21.86;46.15
18569;BME280;14780;48.316;-1.050;2022-09-30T11:06:00;98724.88;;;21.85;46.02
18569;BME280;14780;48.316;-1.050;2022-09-30T11:08:54;98724.06;;;21.89;46.16
18569;BME280;14780;48.316;-1.050;2022-09-30T11:11:49;98720.81;;;21.92;46.12
18569;BME280;14780;48.316;-1.050;2022-09-30T11:14:41;98724.88;;;21.90;46.08
18569;BME280;14780;48.316;-1.050;2022-09-30T11:17:40;98727.38;;;21.96;46.00
18569;BME280;14780;48.316;-1.050;2022-09-30T11:20:33;98725.44;;;21.92;46.02
18569;BME280;14780;48.316;-1.050;2022-09-30T11:23:37;98717.84;;;21.99;46.03
18569;BME280;14780;48.316;-1.050;2022-09-30T11:26:28;98714.56;;;21.92;46.01
18569;BME280;14780;48.316;-1.050;2022-09-30T11:41:45;98704.78;;;22.06;45.92
18569;BME280;14780;48.316;-1.050;2022-09-30T11:44:36;98699.28;;;21.96;46.01
18569;BME280;14780;48.316;-1.050;2022-09-30T11:47:38;98702.88;;;22.01;45.97
18569;BME280;14780;48.316;-1.050;2022-09-30T11:59:33;98706.44;;;22.12;45.94
18569;BME280;14780;48.316;-1.050;2022-09-30T12:05:23;98703.13;;;22.10;45.93
18569;BME280;14780;48.316;-1.050;2022-09-30T12:11:20;98705.63;;;22.16;46.00
18569;BME280;14780;48.316;-1.050;2022-09-30T12:14:22;98692.25;;;22.25;45.88
18569;BME280;14780;48.316;-1.050;2022-09-30T12:17:24;98681.34;;;22.25;45.91
18569;BME280;14780;48.316;-1.050;2022-09-30T12:20:41;98675.09;;;22.24;45.82
18569;BME280;14780;48.316;-1.050;2022-09-30T12:26:23;98681.91;;;22.22;45.77
18569;BME280;14780;48.316;-1.050;2022-09-30T12:29:20;98677.28;;;22.27;45.86
18569;BME280;14780;48.316;-1.050;2022-09-30T12:32:52;98679.47;;;22.35;45.64
18569;BME280;14780;48.316;-1.050;2022-09-30T12:47:57;98674.06;;;22.45;45.46
18569;BME280;14780;48.316;-1.050;2022-09-30T12:50:51;98664.47;;;22.38;45.56
18569;BME280;14780;48.316;-1.050;2022-09-30T12:53:38;98662.56;;;22.33;45.59
18569;BME280;14780;48.316;-1.050;2022-09-30T12:56:27;98664.22;;;22.39;45.54
18569;BME280;14780;48.316;-1.050;2022-09-30T12:59:14;98663.69;;;22.37;45.64
18569;BME280;14780;48.316;-1.050;2022-09-30T13:02:02;98663.38;;;22.39;45.64
18569;BME280;14780;48.316;-1.050;2022-09-30T13:04:50;98662.28;;;22.40;45.50
18569;BME280;14780;48.316;-1.050;2022-09-30T13:07:34;98663.69;;;22.42;45.57
18569;BME280;14780;48.316;-1.050;2022-09-30T13:16:09;98657.13;;;22.43;45.56
18569;BME280;14780;48.316;-1.050;2022-09-30T13:18:57;98655.78;;;22.46;45.53
18569;BME280;14780;48.316;-1.050;2022-09-30T13:21:41;98665.88;;;22.45;45.47
18569;BME280;14780;48.316;-1.050;2022-09-30T13:28:24;98648.44;;;22.46;45.46
18569;BME280;14780;48.316;-1.050;2022-09-30T13:31:15;98637.25;;;22.58;45.36
18569;BME280;14780;48.316;-1.050;2022-09-30T13:34:21;98630.69;;;22.54;45.33
18569;BME280;14780;48.316;-1.050;2022-09-30T13:37:31;98644.31;;;22.59;45.26
18569;BME280;14780;48.316;-1.050;2022-09-30T13:40:19;98648.16;;;22.53;45.33
18569;BME280;14780;48.316;-1.050;2022-09-30T13:43:06;98647.59;;;22.51;45.28
18569;BME280;14780;48.316;-1.050;2022-09-30T13:45:55;98639.97;;;22.53;45.29
18569;BME280;14780;48.316;-1.050;2022-09-30T13:48:46;98643.53;;;22.53;45.32
18569;BME280;14780;48.316;-1.050;2022-09-30T13:51:33;98648.16;;;22.53;45.34
18569;BME280;14780;48.316;-1.050;2022-09-30T13:54:34;98644.31;;;22.59;45.12
18569;BME280;14780;48.316;-1.050;2022-09-30T13:57:27;98652.25;;;22.55;45.17
18569;BME280;14780;48.316;-1.050;2022-09-30T14:00:20;98634.50;;;22.53;45.13
18569;BME280;14780;48.316;-1.050;2022-09-30T14:21:48;98608.88;;;22.54;44.97
18569;BME280;14780;48.316;-1.050;2022-09-30T14:24:35;98609.72;;;22.49;45.06
18569;BME280;14780;48.316;-1.050;2022-09-30T14:27:38;98610.81;;;22.53;44.95
18569;BME280;14780;48.316;-1.050;2022-09-30T14:30:25;98605.63;;;22.47;44.94
18569;BME280;14780;48.316;-1.050;2022-09-30T14:33:24;98601.78;;;22.53;44.82
18569;BME280;14780;48.316;-1.050;2022-09-30T14:36:13;98606.19;;;22.49;44.94
18569;BME280;14780;48.316;-1.050;2022-09-30T14:39:00;98620.34;;;22.46;44.86
18569;BME280;14780;48.316;-1.050;2022-09-30T14:41:52;98623.06;;;22.51;44.73
18569;BME280;14780;48.316;-1.050;2022-09-30T14:44:40;98629.34;;;22.46;44.76
18569;BME280;14780;48.316;-1.050;2022-09-30T14:47:26;98618.72;;;22.45;44.78
18569;BME280;14780;48.316;-1.050;2022-09-30T14:50:16;98622.81;;;22.47;44.83
18569;BME280;14780;48.316;-1.050;2022-09-30T14:53:02;98624.69;;;22.47;44.81
18569;BME280;14780;48.316;-1.050;2022-09-30T14:55:49;98624.44;;;22.43;44.70
18569;BME280;14780;48.316;-1.050;2022-09-30T14:58:39;98622.81;;;22.47;44.71
18569;BME280;14780;48.316;-1.050;2022-09-30T15:01:34;98616.53;;;22.52;44.68
18569;BME280;14780;48.316;-1.050;2022-09-30T15:04:24;98617.34;;;22.47;44.61
18569;BME280;14780;48.316;-1.050;2022-09-30T15:07:11;98612.72;;;22.43;44.67
18569;BME280;14780;48.316;-1.050;2022-09-30T15:10:00;98606.72;;;22.46;44.60
18569;BME280;14780;48.316;-1.050;2022-09-30T15:12:47;98617.34;;;22.42;44.74
18569;BME280;14780;48.316;-1.050;2022-09-30T15:15:35;98618.19;;;22.43;44.67
18569;BME280;14780;48.316;-1.050;2022-09-30T15:18:32;98613.53;;;22.48;44.56
18569;BME280;14780;48.316;-1.050;2022-09-30T15:21:20;98608.59;;;22.40;44.70
18569;BME280;14780;48.316;-1.050;2022-09-30T15:24:08;98613.81;;;22.42;44.59
18569;BME280;14780;48.316;-1.050;2022-09-30T15:26:54;98617.63;;;22.41;44.61
18569;BME280;14780;48.316;-1.050;2022-09-30T15:29:56;98612.72;;;22.48;44.45
18569;BME280;14780;48.316;-1.050;2022-09-30T15:32:42;98616.53;;;22.42;44.57
18569;BME280;14780;48.316;-1.050;2022-09-30T15:35:28;98613.22;;;22.40;44.50
18569;BME280;14780;48.316;-1.050;2022-09-30T15:38:24;98616.81;;;22.45;44.45
18569;BME280;14780;48.316;-1.050;2022-09-30T15:41:11;98608.06;;;22.38;44.52
18569;BME280;14780;48.316;-1.050;2022-09-30T15:43:56;98607.22;;;22.38;44.45
18569;BME280;14780;48.316;-1.050;2022-09-30T15:47:13;98614.06;;;22.50;44.38
18569;BME280;14780;48.316;-1.050;2022-09-30T15:49:58;98599.06;;;22.38;44.38
18569;BME280;14780;48.316;-1.050;2022-09-30T15:52:44;98590.34;;;22.36;44.55
18569;BME280;14780;48.316;-1.050;2022-09-30T15:55:40;98588.19;;;22.43;44.40
18569;BME280;14780;48.316;-1.050;2022-09-30T16:01:22;98582.97;;;22.41;44.41
18569;BME280;14780;48.316;-1.050;2022-09-30T16:04:22;98593.38;;;22.44;44.30
18569;BME280;14780;48.316;-1.050;2022-09-30T16:07:09;98588.72;;;22.35;44.41
18569;BME280;14780;48.316;-1.050;2022-09-30T16:09:55;98597.16;;;22.33;44.32
18569;BME280;14780;48.316;-1.050;2022-09-30T16:12:42;98608.06;;;22.33;44.31
18569;BME280;14780;48.316;-1.050;2022-09-30T16:15:36;98612.94;;;22.36;44.33
18569;BME280;14780;48.316;-1.050;2022-09-30T16:18:28;98615.41;;;22.38;44.27
18569;BME280;14780;48.316;-1.050;2022-09-30T16:21:45;98615.19;;;22.44;44.25
18569;BME280;14780;48.316;-1.050;2022-09-30T16:27:24;98617.06;;;22.34;44.09
18569;BME280;14780;48.316;-1.050;2022-09-30T16:30:14;98617.06;;;22.29;44.18
18569;BME280;14780;48.316;-1.050;2022-09-30T16:33:04;98621.16;;;22.31;44.13
18569;BME280;14780;48.316;-1.050;2022-09-30T16:35:49;98595.25;;;22.29;44.15
18569;BME280;14780;48.316;-1.050;2022-09-30T16:38:34;98589.81;;;22.29;44.13
18569;BME280;14780;48.316;-1.050;2022-09-30T16:41:19;98601.50;;;22.29;44.11
18569;BME280;14780;48.316;-1.050;2022-09-30T16:44:04;98601.81;;;22.28;44.19
18569;BME280;14780;48.316;-1.050;2022-09-30T16:46:48;98600.72;;;22.29;44.24
18569;BME280;14780;48.316;-1.050;2022-09-30T16:49:33;98585.44;;;22.33;44.23
18569;BME280;14780;48.316;-1.050;2022-09-30T16:52:18;98591.97;;;22.32;44.30
18569;BME280;14780;48.316;-1.050;2022-09-30T16:55:03;98594.44;;;22.33;44.27
18569;BME280;14780;48.316;-1.050;2022-09-30T16:57:48;98589.50;;;22.35;44.39
18569;BME280;14780;48.316;-1.050;2022-09-30T17:00:33;98589.25;;;22.37;44.36
18569;BME280;14780;48.316;-1.050;2022-09-30T17:03:18;98595.25;;;22.39;44.49
18569;BME280;14780;48.316;-1.050;2022-09-30T17:06:05;98589.53;;;22.40;44.59
18569;BME280;14780;48.316;-1.050;2022-09-30T17:08:50;98593.66;;;22.43;44.75
18569;BME280;14780;48.316;-1.050;2022-09-30T17:11:37;98584.38;;;22.49;44.93
18569;BME280;14780;48.316;-1.050;2022-09-30T17:14:22;98574.00;;;22.56;45.41
18569;BME280;14780;48.316;-1.050;2022-09-30T17:17:08;98579.16;;;22.62;45.65
18569;BME280;14780;48.316;-1.050;2022-09-30T17:19:52;98591.97;;;22.67;45.32
18569;BME280;14780;48.316;-1.050;2022-09-30T17:22:37;98582.69;;;22.68;45.48
18569;BME280;14780;48.316;-1.050;2022-09-30T17:25:22;98581.06;;;22.67;45.44
18569;BME280;14780;48.316;-1.050;2022-09-30T17:28:11;98579.41;;;22.66;45.47